Time;durP1;ratioP1;P1;durP2;ratioP2;P2;SDS_P1;SDS_P2;PMS_P1;PMS_P2;Temp;Humidity;BMP_temperature;BMP_pressure;BME280_temperature;BME280_humidity;BME280_pressure;Samples;Min_cycle;Max_cycle;Signal;HPM_P1;HPM_P2
2022/10/09 00:02:25;;;;;;;14.63;5.50;;;9.40;92.10;;;;;;5035769;28;20040;-81
2022/10/09 00:04:50;;;;;;;12.57;5.23;;;9.40;92.10;;;;;;5052453;28;20587;-82
2022/10/09 00:07:16;;;;;;;19.20;6.30;;;9.40;92.10;;;;;;5035646;28;20496;-81
2022/10/09 00:09:42;;;;;;;12.40;5.33;;;9.40;92.10;;;;;;5035617;28;20134;-81
2022/10/09 00:12:07;;;;;;;12.47;5.67;;;9.40;92.20;;;;;;5036001;28;20040;-81
2022/10/09 00:14:33;;;;;;;11.80;6.07;;;9.30;92.20;;;;;;5052287;28;20025;-82
2022/10/09 00:16:59;;;;;;;10.23;5.57;;;9.40;92.30;;;;;;5035434;28;20029;-82
2022/10/09 00:19:24;;;;;;;8.33;4.83;;;9.30;92.40;;;;;;5034945;28;20079;-82
2022/10/09 00:21:50;;;;;;;10.50;5.70;;;9.30;92.40;;;;;;5035562;28;20127;-81
2022/10/09 00:24:16;;;;;;;8.83;5.37;;;9.30;92.50;;;;;;5052418;28;20458;-82
2022/10/09 00:26:41;;;;;;;10.83;5.40;;;9.20;92.50;;;;;;5019010;28;20032;-82
2022/10/09 00:29:07;;;;;;;10.47;4.77;;;9.20;92.60;;;;;;5035820;28;20082;-82
2022/10/09 00:31:32;;;;;;;9.47;5.30;;;9.10;92.60;;;;;;5035295;28;20024;-82
2022/10/09 00:33:58;;;;;;;8.40;4.57;;;9.10;92.70;;;;;;5035426;28;20055;-82
2022/10/09 00:36:25;;;;;;;7.57;4.93;;;9.10;92.70;;;;;;5053040;28;20362;-82
2022/10/09 00:38:53;;;;;;;7.67;4.37;;;9.10;92.80;;;;;;5051985;28;20401;-81
2022/10/09 00:41:28;;;;;;;8.60;5.40;;;9.00;92.80;;;;;;5051823;28;20033;-81
2022/10/09 00:44:02;;;;;;;6.07;4.40;;;9.00;92.90;;;;;;5052120;28;20029;-81
2022/10/09 00:46:54;;;;;;;8.20;4.50;;;9.00;92.90;;;;;;5035306;28;20477;-80
2022/10/09 00:49:26;;;;;;;8.27;4.47;;;9.00;93.10;;;;;;5048043;28;20029;-80
2022/10/09 00:51:54;;;;;;;7.97;4.70;;;8.90;93.10;;;;;;5052003;28;20116;-80
2022/10/09 00:54:26;;;;;;;8.13;4.30;;;8.90;93.10;;;;;;5034915;28;20017;-80
2022/10/09 00:56:53;;;;;;;8.33;5.30;;;8.90;93.20;;;;;;5051500;28;20022;-80
2022/10/09 00:59:19;;;;;;;7.73;4.50;;;8.90;93.30;;;;;;5051853;28;20027;-80
2022/10/09 01:01:45;;;;;;;9.77;4.63;;;8.80;93.40;;;;;;5049344;28;20480;-80
2022/10/09 01:04:11;;;;;;;7.47;5.07;;;8.80;93.50;;;;;;5035185;28;20021;-80
2022/10/09 01:06:50;;;;;;;7.67;5.13;;;8.80;93.50;;;;;;5034714;28;20558;-79
2022/10/09 01:09:30;;;;;;;8.93;4.83;;;8.80;93.60;;;;;;5035027;28;20028;-79
2022/10/09 01:12:16;;;;;;;9.37;5.60;;;8.80;93.70;;;;;;5034926;28;20048;-80
2022/10/09 01:14:58;;;;;;;10.10;5.37;;;8.80;93.70;;;;;;5051404;28;20040;-80
2022/10/09 01:17:41;;;;;;;7.70;5.23;;;8.70;93.80;;;;;;5034935;28;20036;-80
2022/10/09 01:20:28;;;;;;;7.70;5.23;;;8.70;93.90;;;;;;5034895;28;20048;-80
2022/10/09 01:23:14;;;;;;;8.07;5.50;;;8.70;93.90;;;;;;5034633;28;20480;-80
2022/10/09 01:25:43;;;;;;;9.83;5.10;;;8.70;94.00;;;;;;5034131;28;20500;-80
2022/10/09 01:28:12;;;;;;;8.40;5.67;;;8.70;94.00;;;;;;5035114;28;20060;-79
2022/10/09 01:30:37;;;;;;;7.33;4.93;;;8.70;94.10;;;;;;5036488;28;20029;-79
2022/10/09 01:33:04;;;;;;;10.33;5.43;;;8.60;94.10;;;;;;5022398;28;20039;-80
2022/10/09 01:35:30;;;;;;;7.90;5.60;;;8.60;94.20;;;;;;5055627;28;20385;-79
2022/10/09 01:37:56;;;;;;;15.73;6.33;;;8.60;94.30;;;;;;5022248;28;20116;-80
2022/10/09 01:40:24;;;;;;;9.27;5.50;;;8.50;94.40;;;;;;5022400;28;20037;-80
2022/10/09 01:42:53;;;;;;;8.60;5.03;;;8.60;94.50;;;;;;5038712;28;20052;-80
2022/10/09 01:45:19;;;;;;;7.63;4.83;;;8.70;94.70;;;;;;5055035;28;20033;-80
2022/10/09 01:47:45;;;;;;;10.13;4.70;;;8.60;94.80;;;;;;5021337;28;20396;-80
2022/10/09 01:50:32;;;;;;;11.20;6.20;;;8.70;95.00;;;;;;5038152;28;20025;-80
2022/10/09 01:53:11;;;;;;;6.73;4.57;;;8.60;95.10;;;;;;5038026;28;20029;-80
2022/10/09 01:56:06;;;;;;;9.47;4.70;;;8.60;95.10;;;;;;5038018;28;20017;-81
2022/10/09 01:58:44;;;;;;;13.23;5.37;;;8.50;95.20;;;;;;5037838;28;20533;-80
2022/10/09 02:01:42;;;;;;;7.73;4.63;;;8.50;95.20;;;;;;5038077;28;20021;-80
2022/10/09 02:04:12;;;;;;;8.87;5.60;;;8.50;95.20;;;;;;5016938;28;20473;-80
2022/10/09 02:06:39;;;;;;;7.53;4.80;;;8.50;95.30;;;;;;5037726;28;20083;-80
2022/10/09 02:09:12;;;;;;;9.73;5.17;;;8.50;95.40;;;;;;5038372;28;20090;-80
2022/10/09 02:11:41;;;;;;;7.57;5.30;;;8.50;95.50;;;;;;5054843;28;20373;-80
2022/10/09 02:14:07;;;;;;;10.20;5.13;;;8.50;95.50;;;;;;5054447;28;20396;-80
2022/10/09 02:16:39;;;;;;;7.93;4.40;;;8.50;95.60;;;;;;5054676;28;20024;-80
2022/10/09 02:19:20;;;;;;;7.73;3.97;;;8.50;95.70;;;;;;5054722;28;20032;-80
2022/10/09 02:21:56;;;;;;;6.83;4.13;;;8.40;95.60;;;;;;5036338;28;20033;-80
2022/10/09 02:24:22;;;;;;;7.40;4.50;;;8.40;95.60;;;;;;5054224;28;20507;-80
2022/10/09 02:26:50;;;;;;;7.07;4.50;;;8.40;95.60;;;;;;5020850;28;20091;-80
2022/10/09 02:29:16;;;;;;;7.47;4.53;;;8.30;95.50;;;;;;5021448;28;20056;-80
2022/10/09 02:31:42;;;;;;;6.07;3.87;;;8.30;95.60;;;;;;5036806;28;20059;-80
2022/10/09 02:34:17;;;;;;;7.83;4.97;;;8.30;95.60;;;;;;5055264;28;20021;-80
2022/10/09 02:36:42;;;;;;;8.43;4.93;;;8.20;95.60;;;;;;5037389;28;20033;-80
2022/10/09 02:39:11;;;;;;;6.90;5.00;;;8.30;95.70;;;;;;5037373;28;20166;-80
2022/10/09 02:41:37;;;;;;;7.87;4.50;;;8.20;95.90;;;;;;5036766;28;20029;-86
2022/10/09 02:44:04;;;;;;;6.83;4.50;;;8.10;95.70;;;;;;5038102;28;20154;-86
2022/10/09 02:46:30;;;;;;;7.50;4.63;;;8.10;95.70;;;;;;5037797;28;20040;-86
2022/10/09 02:48:56;;;;;;;9.87;4.73;;;8.10;95.80;;;;;;5038147;28;20104;-86
2022/10/09 02:51:25;;;;;;;7.67;4.60;;;8.10;95.80;;;;;;5038680;28;20028;-86
2022/10/09 02:53:52;;;;;;;8.43;5.00;;;8.10;95.90;;;;;;5038723;28;20111;-85
2022/10/09 02:56:18;;;;;;;7.00;4.63;;;8.10;95.90;;;;;;5022148;28;20564;-85
2022/10/09 02:58:44;;;;;;;10.47;4.80;;;8.00;95.90;;;;;;5021786;28;20033;-87
2022/10/09 03:01:10;;;;;;;9.93;5.03;;;8.00;96.00;;;;;;5042546;28;20036;-86
2022/10/09 03:03:36;;;;;;;9.27;5.10;;;8.00;96.00;;;;;;5036676;28;20063;-86
2022/10/09 03:06:08;;;;;;;8.20;5.07;;;7.90;96.00;;;;;;5052386;28;20041;-86
2022/10/09 03:08:35;;;;;;;8.37;5.03;;;7.90;96.10;;;;;;5053804;28;20017;-86
2022/10/09 03:11:00;;;;;;;15.73;5.13;;;7.90;96.10;;;;;;5037301;28;20025;-86
2022/10/09 03:13:26;;;;;;;9.63;4.87;;;7.90;96.20;;;;;;5054037;28;20374;-86
2022/10/09 03:15:52;;;;;;;9.17;5.87;;;7.90;96.20;;;;;;5019826;28;20140;-86
2022/10/09 03:18:18;;;;;;;10.27;5.60;;;7.80;96.20;;;;;;5054087;28;20033;-86
2022/10/09 03:20:44;;;;;;;8.33;4.57;;;7.80;96.30;;;;;;5053634;28;20063;-86
2022/10/09 03:23:10;;;;;;;8.53;4.70;;;7.80;96.30;;;;;;5053976;28;20400;-86
2022/10/09 03:25:36;;;;;;;8.50;4.80;;;7.80;96.40;;;;;;5053398;28;20028;-87
2022/10/09 03:28:02;;;;;;;9.53;4.33;;;7.80;96.50;;;;;;5053915;28;20025;-87
2022/10/09 03:30:27;;;;;;;13.40;4.40;;;7.80;96.50;;;;;;5053425;28;20035;-86
2022/10/09 03:32:53;;;;;;;9.33;5.03;;;7.80;96.50;;;;;;5036838;28;20075;-86
2022/10/09 03:35:19;;;;;;;7.87;4.67;;;7.70;96.50;;;;;;5053869;28;20021;-86
2022/10/09 03:37:44;;;;;;;8.20;4.53;;;7.70;96.50;;;;;;5053366;28;20112;-86
2022/10/09 03:40:10;;;;;;;7.07;4.50;;;7.70;96.50;;;;;;5036991;28;20462;-85
2022/10/09 03:42:36;;;;;;;7.57;4.47;;;7.80;96.60;;;;;;5020628;28;20033;-86
2022/10/09 03:45:03;;;;;;;6.50;4.40;;;7.70;96.60;;;;;;5053460;28;20021;-86
2022/10/09 03:47:30;;;;;;;7.33;4.10;;;7.60;96.70;;;;;;5036701;28;20039;-86
2022/10/09 03:49:56;;;;;;;6.00;4.13;;;7.60;96.70;;;;;;5037069;28;20457;-86
2022/10/09 03:52:22;;;;;;;6.53;4.43;;;7.60;96.70;;;;;;5036912;28;20094;-87
2022/10/09 03:54:48;;;;;;;7.20;4.23;;;7.50;96.70;;;;;;5053139;28;20017;-86
2022/10/09 03:57:13;;;;;;;6.33;4.03;;;7.60;96.80;;;;;;5036680;28;20112;-86
2022/10/09 03:59:39;;;;;;;5.77;4.03;;;7.50;96.70;;;;;;5052227;28;20021;-86
2022/10/09 04:02:05;;;;;;;7.13;3.77;;;7.50;96.80;;;;;;5035395;28;20032;-86
2022/10/09 04:04:30;;;;;;;7.63;4.17;;;7.50;96.80;;;;;;5020765;28;20029;-86
2022/10/09 04:06:56;;;;;;;5.97;3.77;;;7.40;96.90;;;;;;5037147;28;20498;-86
2022/10/09 04:09:22;;;;;;;6.53;4.20;;;7.40;97.00;;;;;;5037071;28;20013;-86
2022/10/09 04:11:47;;;;;;;7.10;4.60;;;7.50;97.00;;;;;;5019893;28;20434;-86
2022/10/09 04:14:13;;;;;;;6.97;4.00;;;7.40;97.10;;;;;;5035817;28;20355;-86
2022/10/09 04:16:39;;;;;;;6.73;4.10;;;7.40;97.10;;;;;;5019484;28;20021;-85
2022/10/09 04:19:04;;;;;;;6.20;3.90;;;7.30;97.10;;;;;;5019644;28;20036;-86
2022/10/09 04:21:31;;;;;;;8.37;4.67;;;7.40;97.20;;;;;;5035999;28;20404;-86
2022/10/09 04:23:57;;;;;;;6.93;4.10;;;7.40;97.30;;;;;;5036383;28;20017;-86
2022/10/09 04:26:22;;;;;;;6.97;4.37;;;7.30;97.30;;;;;;5019608;28;20099;-86
2022/10/09 04:28:48;;;;;;;7.63;4.80;;;7.30;97.30;;;;;;5019644;28;20019;-86
2022/10/09 04:31:14;;;;;;;6.67;4.83;;;7.30;97.40;;;;;;5035680;28;20028;-86
2022/10/09 04:33:39;;;;;;;6.87;4.40;;;7.30;97.40;;;;;;5019573;28;20028;-86
2022/10/09 04:36:05;;;;;;;6.87;4.83;;;7.20;97.40;;;;;;5035971;28;20029;-86
2022/10/09 04:38:31;;;;;;;8.00;3.77;;;7.30;97.40;;;;;;5036184;28;20036;-86
2022/10/09 04:41:02;;;;;;;15.07;4.60;;;7.20;97.50;;;;;;5036098;28;20472;-86
2022/10/09 04:43:28;;;;;;;8.23;4.23;;;7.20;97.50;;;;;;5036212;28;20017;-80
2022/10/09 04:45:55;;;;;;;10.57;4.67;;;7.20;97.50;;;;;;5035449;28;20021;-80
2022/10/09 04:48:20;;;;;;;7.53;4.57;;;7.10;97.60;;;;;;5035045;28;20041;-80
2022/10/09 04:50:46;;;;;;;6.07;3.97;;;7.10;97.60;;;;;;5018928;28;20040;-80
2022/10/09 04:53:13;;;;;;;7.03;4.50;;;7.00;97.60;;;;;;5019093;28;20455;-80
2022/10/09 04:55:43;;;;;;;7.67;4.20;;;7.10;97.80;;;;;;5035759;28;20450;-80
2022/10/09 04:58:10;;;;;;;6.87;4.07;;;7.10;97.90;;;;;;5034977;28;20025;-80
2022/10/09 05:00:41;;;;;;;10.07;4.37;;;7.10;98.00;;;;;;5019134;28;20366;-80
2022/10/09 05:03:06;;;;;;;6.70;4.33;;;7.10;98.00;;;;;;5052834;28;20029;-80
2022/10/09 05:05:32;;;;;;;7.43;4.60;;;7.10;98.10;;;;;;5019960;28;20111;-80
2022/10/09 05:07:58;;;;;;;7.43;4.30;;;7.00;98.20;;;;;;5038999;28;20086;-80
2022/10/09 05:10:23;;;;;;;10.20;4.90;;;7.00;98.20;;;;;;5022429;28;20079;-80
2022/10/09 05:12:49;;;;;;;10.70;4.70;;;7.00;98.30;;;;;;5022442;28;20033;-80
2022/10/09 05:15:15;;;;;;;8.90;5.30;;;7.10;98.40;;;;;;5022602;28;20386;-80
2022/10/09 05:17:40;;;;;;;10.17;5.33;;;7.00;98.60;;;;;;5056654;28;20025;-80
2022/10/09 05:20:07;;;;;;;9.77;4.93;;;7.00;98.40;;;;;;5022834;28;20032;-80
2022/10/09 05:22:32;;;;;;;9.43;4.30;;;7.00;98.40;;;;;;5022262;28;20140;-80
2022/10/09 05:24:58;;;;;;;9.07;4.53;;;7.00;98.50;;;;;;5022448;28;20536;-80
2022/10/09 05:27:24;;;;;;;10.77;5.27;;;7.00;98.80;;;;;;5038513;28;20119;-80
2022/10/09 05:29:49;;;;;;;9.67;5.10;;;7.10;98.60;;;;;;5022177;28;20025;-80
2022/10/09 05:32:15;;;;;;;10.93;5.33;;;7.00;98.90;;;;;;5038798;28;20112;-80
2022/10/09 05:34:40;;;;;;;7.73;4.33;;;7.00;98.60;;;;;;5038646;28;20131;-80
2022/10/09 05:37:06;;;;;;;7.87;5.20;;;7.00;98.70;;;;;;5037353;28;20087;-81
2022/10/09 05:39:34;;;;;;;10.23;4.40;;;7.00;98.70;;;;;;5056059;28;20036;-81
2022/10/09 05:42:00;;;;;;;8.80;4.40;;;7.00;98.70;;;;;;5041932;28;20071;-81
2022/10/09 05:44:26;;;;;;;7.60;4.13;;;7.00;98.70;;;;;;5039966;28;20477;-80
2022/10/09 05:46:52;;;;;;;9.23;4.83;;;7.00;98.80;;;;;;5036957;28;20036;-81
2022/10/09 05:49:17;;;;;;;9.50;4.70;;;7.00;98.80;;;;;;5033713;28;20024;-81
2022/10/09 05:51:43;;;;;;;10.73;4.47;;;7.00;98.80;;;;;;5036105;28;20044;-81
2022/10/09 05:54:13;;;;;;;10.10;4.80;;;7.00;98.90;;;;;;5035766;28;20574;-81
2022/10/09 05:56:39;;;;;;;13.27;5.03;;;6.90;98.90;;;;;;5054495;28;20401;-81
2022/10/09 05:59:07;;;;;;;14.20;5.07;;;7.00;99.00;;;;;;5034508;28;20037;-80
2022/10/09 06:01:45;;;;;;;8.77;4.37;;;6.90;99.10;;;;;;5045248;28;20029;-80
2022/10/09 06:04:18;;;;;;;8.77;5.10;;;7.00;99.10;;;;;;5027772;28;20030;-80
2022/10/09 06:06:46;;;;;;;7.70;4.90;;;7.00;99.20;;;;;;5033771;28;20076;-80
2022/10/09 06:09:12;;;;;;;10.40;5.93;;;7.00;99.20;;;;;;5021628;28;20289;-80
2022/10/09 06:11:39;;;;;;;10.47;5.20;;;7.00;99.30;;;;;;5016479;28;20028;-80
2022/10/09 06:14:07;;;;;;;11.03;4.97;;;7.00;99.40;;;;;;5030218;28;20032;-80
2022/10/09 06:16:39;;;;;;;10.10;4.67;;;7.00;99.40;;;;;;5037382;28;20021;-80
2022/10/09 06:19:06;;;;;;;8.47;5.10;;;7.10;99.40;;;;;;5034794;28;20029;-80
2022/10/09 06:21:33;;;;;;;10.87;4.80;;;7.10;99.40;;;;;;5037132;28;20021;-80
2022/10/09 06:24:00;;;;;;;8.37;4.97;;;7.00;99.50;;;;;;5036779;28;20393;-80
2022/10/09 06:26:30;;;;;;;9.43;5.03;;;7.10;99.60;;;;;;5037578;28;20418;-80
2022/10/09 06:28:57;;;;;;;8.43;4.63;;;7.10;99.60;;;;;;5021399;28;20029;-80
2022/10/09 06:31:26;;;;;;;8.10;4.57;;;7.10;99.70;;;;;;5037503;28;20021;-80
2022/10/09 06:33:53;;;;;;;10.00;5.10;;;7.10;99.70;;;;;;5055504;28;20476;-80
2022/10/09 06:36:25;;;;;;;10.43;5.23;;;7.10;99.80;;;;;;5054731;28;20479;-80
2022/10/09 06:38:52;;;;;;;11.67;5.23;;;7.20;99.90;;;;;;5037018;28;20121;-80
2022/10/09 06:41:20;;;;;;;12.03;5.40;;;7.20;99.90;;;;;;5034709;28;20524;-80
2022/10/09 06:43:55;;;;;;;15.87;5.40;;;7.30;99.90;;;;;;5021117;28;20060;-80
2022/10/09 06:46:23;;;;;;;9.93;5.03;;;7.30;99.90;;;;;;5037512;28;20028;-79
2022/10/09 06:48:49;;;;;;;11.13;4.90;;;7.30;99.90;;;;;;5037223;28;20534;-79
2022/10/09 06:51:17;;;;;;;11.37;4.67;;;7.40;99.90;;;;;;5020729;28;20048;-79
2022/10/09 06:53:48;;;;;;;11.03;4.93;;;7.50;99.90;;;;;;5037158;28;20623;-79
2022/10/09 06:56:16;;;;;;;9.57;5.30;;;7.40;99.90;;;;;;5035605;28;20056;-80
2022/10/09 06:58:42;;;;;;;10.03;4.60;;;7.50;99.90;;;;;;5035630;28;20630;-79
2022/10/09 07:01:20;;;;;;;13.67;4.93;;;7.60;99.90;;;;;;5036346;28;20492;-80
2022/10/09 07:03:52;;;;;;;14.80;6.20;;;7.60;99.90;;;;;;5040083;28;20025;-80
2022/10/09 07:06:20;;;;;;;10.13;5.57;;;7.60;99.90;;;;;;5036478;28;20037;-80
2022/10/09 07:08:51;;;;;;;11.53;5.83;;;7.60;99.90;;;;;;5036835;28;20488;-80
2022/10/09 07:11:20;;;;;;;11.33;5.97;;;7.70;99.90;;;;;;5035023;28;20119;-80
2022/10/09 07:13:47;;;;;;;11.93;5.77;;;7.80;99.90;;;;;;5036861;28;20420;-80
2022/10/09 07:16:15;;;;;;;10.10;5.43;;;7.90;99.90;;;;;;5022656;28;20028;-80
2022/10/09 07:18:41;;;;;;;14.23;5.97;;;7.80;99.90;;;;;;5054444;28;20017;-80
2022/10/09 07:21:08;;;;;;;10.63;5.80;;;7.90;99.90;;;;;;5017006;28;20416;-80
2022/10/09 07:23:35;;;;;;;11.57;5.50;;;7.90;99.90;;;;;;5036311;28;20017;-80
2022/10/09 07:26:07;;;;;;;20.47;6.53;;;8.00;99.90;;;;;;5036059;28;20082;-80
2022/10/09 07:28:32;;;;;;;13.23;6.23;;;8.10;99.90;;;;;;5033014;28;20029;-80
2022/10/09 07:31:02;;;;;;;13.83;5.43;;;8.10;99.90;;;;;;5017720;28;20439;-79
2022/10/09 07:33:28;;;;;;;15.57;6.20;;;8.20;99.90;;;;;;5035242;28;20021;-80
2022/10/09 07:35:54;;;;;;;16.17;6.17;;;8.20;99.90;;;;;;5053306;28;20028;-80
2022/10/09 07:38:21;;;;;;;13.87;5.40;;;8.30;99.90;;;;;;5036368;28;20036;-79
2022/10/09 07:40:47;;;;;;;11.00;5.87;;;8.40;99.90;;;;;;5036238;28;20059;-80
2022/10/09 07:43:13;;;;;;;10.87;5.87;;;8.40;99.90;;;;;;5042442;28;20100;-80
2022/10/09 07:45:39;;;;;;;10.57;4.83;;;8.40;99.90;;;;;;5049280;28;20053;-81
2022/10/09 07:48:05;;;;;;;14.50;6.00;;;8.50;99.90;;;;;;5016516;28;20060;-80
2022/10/09 07:50:30;;;;;;;15.83;5.87;;;8.60;99.90;;;;;;5029159;28;20029;-79
2022/10/09 07:52:56;;;;;;;11.73;5.60;;;8.70;99.90;;;;;;5019748;28;20021;-80
2022/10/09 07:55:25;;;;;;;13.40;6.37;;;8.70;99.90;;;;;;5021834;28;20021;-80
2022/10/09 07:57:50;;;;;;;12.77;5.73;;;8.60;99.90;;;;;;5052409;28;20032;-80
2022/10/09 08:00:16;;;;;;;12.17;5.57;;;8.80;99.90;;;;;;5033303;28;20037;-80
2022/10/09 08:02:42;;;;;;;13.73;5.37;;;8.90;99.90;;;;;;5042708;28;20028;-80
2022/10/09 08:05:08;;;;;;;13.77;5.43;;;8.90;99.90;;;;;;5024208;28;20415;-81
2022/10/09 08:07:34;;;;;;;11.30;4.47;;;9.00;99.90;;;;;;5035884;28;20403;-81
2022/10/09 08:10:00;;;;;;;10.43;5.20;;;9.10;99.90;;;;;;5035888;28;20098;-80
2022/10/09 08:12:26;;;;;;;13.40;5.80;;;9.10;99.90;;;;;;5035159;28;20071;-82
2022/10/09 08:14:55;;;;;;;11.77;5.13;;;9.10;99.90;;;;;;5036328;28;20053;-81
2022/10/09 08:17:21;;;;;;;15.77;5.53;;;9.30;99.90;;;;;;5012851;28;20030;-81
2022/10/09 08:19:53;;;;;;;11.50;5.40;;;9.30;99.90;;;;;;5051551;28;20035;-81
2022/10/09 08:22:18;;;;;;;9.57;5.40;;;9.40;99.90;;;;;;5035194;28;20048;-80
2022/10/09 08:24:45;;;;;;;10.40;4.90;;;9.50;99.90;;;;;;5050710;28;20028;-82
2022/10/09 08:27:13;;;;;;;10.57;6.10;;;9.70;99.90;;;;;;5017761;28;20037;-82
2022/10/09 08:29:39;;;;;;;10.90;5.17;;;9.70;99.90;;;;;;5027087;28;20029;-82
2022/10/09 08:32:04;;;;;;;16.73;5.13;;;9.70;99.90;;;;;;5018433;28;20127;-82
2022/10/09 08:34:30;;;;;;;9.50;5.47;;;9.80;99.90;;;;;;5035359;28;20052;-83
2022/10/09 08:36:56;;;;;;;14.17;5.73;;;9.90;99.90;;;;;;5034594;28;20036;-82
2022/10/09 08:39:24;;;;;;;10.87;5.67;;;10.00;99.90;;;;;;5018106;28;20033;-81
2022/10/09 08:41:55;;;;;;;13.50;5.50;;;10.10;99.90;;;;;;5020312;28;20025;-81
2022/10/09 08:44:27;;;;;;;10.67;4.70;;;10.20;99.90;;;;;;5043723;28;20032;-82
2022/10/09 08:47:25;;;;;;;13.77;5.63;;;10.30;99.90;;;;;;5036988;28;20033;-82
2022/10/09 08:50:21;;;;;;;14.33;5.53;;;10.40;99.90;;;;;;5003395;28;20041;-83
2022/10/09 08:52:50;;;;;;;11.32;4.93;;;10.50;99.90;;;;;;5034328;28;20025;-82
2022/10/09 08:55:19;;;;;;;13.55;5.60;;;10.60;99.90;;;;;;5034868;28;20121;-82
2022/10/09 08:57:48;;;;;;;11.20;4.82;;;10.70;99.90;;;;;;5034959;28;20487;-83
2022/10/09 09:00:29;;;;;;;14.90;6.45;;;10.80;99.90;;;;;;5032404;28;20083;-83
2022/10/09 09:03:14;;;;;;;12.35;4.88;;;10.90;99.90;;;;;;5034874;28;20033;-80
2022/10/09 09:05:55;;;;;;;;;;;11.00;99.90;;;;;;5047880;28;20056;-83
2022/10/09 09:08:41;;;;;;;10.93;5.05;;;11.20;99.90;;;;;;5040698;28;19917;-83
2022/10/09 09:11:38;;;;;;;11.23;4.75;;;11.30;99.90;;;;;;5046163;28;20121;-83
2022/10/09 09:14:31;;;;;;;12.27;4.90;;;11.30;99.70;;;;;;5032333;28;20492;-83
2022/10/09 09:17:15;;;;;;;9.52;4.18;;;11.40;99.50;;;;;;5021982;28;20044;-82
2022/10/09 09:20:07;;;;;;;13.93;4.28;;;11.50;99.30;;;;;;5043980;28;20034;-82
2022/10/09 09:22:35;;;;;;;12.43;4.70;;;11.60;99.00;;;;;;5012202;28;20034;-83
2022/10/09 09:25:27;;;;;;;12.85;5.38;;;11.70;98.80;;;;;;5030356;28;20036;-82
2022/10/09 09:27:56;;;;;;;6.22;3.30;;;11.80;98.70;;;;;;5025395;28;20037;-83
2022/10/09 09:30:34;;;;;;;13.95;4.57;;;11.90;98.60;;;;;;5032301;28;20018;-84
2022/10/09 09:33:15;;;;;;;11.13;4.60;;;12.00;98.50;;;;;;5025957;28;20026;-84
2022/10/09 09:36:08;;;;;;;13.30;3.90;;;12.10;98.30;;;;;;5030528;28;20109;-83
2022/10/09 09:38:35;;;;;;;11.40;4.22;;;12.30;98.20;;;;;;5028995;28;20381;-81
2022/10/09 09:41:02;;;;;;;8.75;4.03;;;12.50;98.00;;;;;;5013159;28;20079;-83
2022/10/09 09:43:27;;;;;;;12.93;4.18;;;12.90;97.80;;;;;;5009442;28;20051;-83
2022/10/09 09:45:59;;;;;;;12.10;4.05;;;13.10;97.40;;;;;;5028376;28;20033;-84
2022/10/09 09:48:38;;;;;;;11.48;3.90;;;13.50;97.00;;;;;;5029565;28;20034;-81
2022/10/09 09:51:12;;;;;;;9.15;3.10;;;14.00;96.80;;;;;;5032604;28;20014;-81
2022/10/09 09:53:42;;;;;;;;;;;14.60;97.30;;;;;;5016132;28;20033;-80
2022/10/09 09:56:11;;;;;;;7.32;1.65;;;15.40;97.80;;;;;;5016119;28;19912;-82
2022/10/09 09:58:46;;;;;;;5.85;1.40;;;16.20;97.90;;;;;;5032992;28;20053;-81
2022/10/09 10:01:25;;;;;;;7.53;1.33;;;17.00;96.50;;;;;;5036136;28;20034;-83
2022/10/09 10:03:55;;;;;;;5.70;1.67;;;17.90;94.50;;;;;;5034141;28;20025;-85
2022/10/09 10:06:28;;;;;;;6.97;1.40;;;18.70;93.20;;;;;;5050888;28;20056;-84
2022/10/09 10:09:11;;;;;;;4.95;1.38;;;19.60;90.80;;;;;;5032411;28;20116;-83
2022/10/09 10:11:44;;;;;;;5.05;1.20;;;20.40;88.40;;;;;;5034054;28;20029;-82
2022/10/09 10:14:15;;;;;;;4.25;0.95;;;21.30;85.50;;;;;;5031374;28;20463;-83
2022/10/09 10:16:42;;;;;;;3.53;1.42;;;22.00;82.40;;;;;;5014867;28;20045;-83
2022/10/09 10:19:24;;;;;;;5.57;1.50;;;22.70;79.30;;;;;;5014787;28;20018;-82
2022/10/09 10:22:00;;;;;;;5.50;1.35;;;23.50;74.30;;;;;;5014604;28;20097;-83
2022/10/09 10:24:40;;;;;;;6.32;1.20;;;24.20;71.20;;;;;;5031374;28;20028;-83
2022/10/09 10:27:24;;;;;;;5.28;1.30;;;24.70;69.10;;;;;;5016454;28;20413;-82
2022/10/09 10:29:53;;;;;;;5.30;1.10;;;25.30;66.70;;;;;;5023685;28;20365;-83
2022/10/09 10:32:33;;;;;;;5.40;0.95;;;25.90;64.20;;;;;;5035724;28;20090;-82
2022/10/09 10:35:22;;;;;;;3.00;0.77;;;26.50;59.60;;;;;;5034480;28;20028;-83
2022/10/09 10:38:09;;;;;;;5.20;1.10;;;26.90;57.10;;;;;;5034161;28;20033;-85
2022/10/09 10:40:36;;;;;;;4.72;1.23;;;27.30;54.60;;;;;;5050961;28;20025;-83
2022/10/09 10:43:08;;;;;;;4.95;1.23;;;27.60;53.70;;;;;;5034325;28;20044;-85
2022/10/09 10:45:36;;;;;;;4.30;1.00;;;27.90;51.90;;;;;;5035552;28;20034;-86
2022/10/09 10:48:03;;;;;;;5.90;1.00;;;28.10;50.70;;;;;;5033919;28;20026;-85
2022/10/09 10:50:36;;;;;;;3.38;0.88;;;28.30;49.70;;;;;;5034473;28;20457;-84
2022/10/09 10:53:25;;;;;;;3.40;0.80;;;28.40;48.60;;;;;;5035289;28;20481;-83
2022/10/09 10:56:09;;;;;;;4.72;0.90;;;28.70;47.60;;;;;;5034217;28;20119;-85
2022/10/09 10:59:15;;;;;;;5.55;1.02;;;28.90;46.70;;;;;;5033920;28;20025;-82
2022/10/09 11:01:52;;;;;;;3.53;0.80;;;29.10;45.40;;;;;;5033713;28;20037;-83
2022/10/09 11:04:30;;;;;;;4.65;1.10;;;29.20;45.40;;;;;;5034178;28;20020;-85
2022/10/09 11:07:08;;;;;;;4.40;1.30;;;29.40;44.70;;;;;;5033214;28;20045;-84
2022/10/09 11:09:51;;;;;;;4.20;1.17;;;29.50;44.20;;;;;;5025874;28;20049;-85
2022/10/09 11:12:41;;;;;;;4.93;0.90;;;29.70;43.40;;;;;;5033285;28;20407;-85
2022/10/09 11:15:36;;;;;;;4.50;0.90;;;30.00;43.40;;;;;;5033392;28;20026;-84
2022/10/09 11:18:14;;;;;;;4.30;0.95;;;30.10;42.50;;;;;;5033388;28;20029;-82
2022/10/09 11:20:58;;;;;;;4.32;1.10;;;30.30;42.40;;;;;;5033312;28;20454;-86
2022/10/09 11:23:54;;;;;;;4.45;1.02;;;30.40;41.30;;;;;;5033545;28;20080;-85
2022/10/09 11:26:46;;;;;;;3.75;0.93;;;30.50;41.20;;;;;;5034449;28;20045;-86
2022/10/09 11:29:18;;;;;;;4.45;1.05;;;30.80;41.10;;;;;;5033255;28;20026;-85
2022/10/09 11:31:57;;;;;;;5.13;1.05;;;30.90;41.00;;;;;;5031601;28;20450;-86
2022/10/09 11:34:31;;;;;;;7.38;1.25;;;31.10;40.80;;;;;;5033605;28;20100;-84
2022/10/09 11:36:58;;;;;;;;;;;31.20;40.70;;;;;;5033118;28;20034;-85
2022/10/09 11:39:27;;;;;;;3.40;0.82;;;31.40;40.60;;;;;;5034519;28;19912;-86
2022/10/09 11:41:54;;;;;;;3.92;0.90;;;31.60;41.30;;;;;;5033292;28;20028;-86
2022/10/09 11:44:45;;;;;;;5.25;1.20;;;31.80;40.80;;;;;;5033364;28;20029;-87
2022/10/09 11:47:35;;;;;;;3.90;1.17;;;32.00;40.00;;;;;;5032875;28;20040;-87
2022/10/09 11:50:15;;;;;;;3.97;1.02;;;32.20;39.70;;;;;;5034431;28;20413;-86
2022/10/09 11:52:57;;;;;;;5.18;1.23;;;32.50;39.10;;;;;;5032913;28;20170;-85
2022/10/09 11:55:28;;;;;;;3.67;0.70;;;32.60;38.10;;;;;;5032832;28;20026;-83
2022/10/09 11:57:57;;;;;;;3.78;0.90;;;32.80;38.30;;;;;;5033128;28;20021;-86
2022/10/09 12:00:36;;;;;;;2.63;0.80;;;33.00;37.80;;;;;;5033013;28;20030;-85
2022/10/09 12:03:06;;;;;;;2.38;0.88;;;33.00;37.30;;;;;;5033748;28;20049;-86
2022/10/09 12:05:53;;;;;;;4.47;1.10;;;33.20;37.10;;;;;;5039071;28;20077;-87
2022/10/09 12:08:26;;;;;;;5.90;1.08;;;33.20;36.40;;;;;;5032363;28;20083;-86
2022/10/09 12:10:57;;;;;;;6.32;1.10;;;33.30;36.30;;;;;;5036080;28;20027;-87
2022/10/09 12:13:45;;;;;;;4.55;0.80;;;33.30;36.10;;;;;;5035899;28;20113;-84
2022/10/09 12:16:31;;;;;;;4.03;1.02;;;33.40;35.80;;;;;;5035704;28;20059;-84
2022/10/09 12:19:00;;;;;;;4.53;0.80;;;33.40;35.50;;;;;;5054164;28;20021;-87
2022/10/09 12:22:03;;;;;;;2.92;0.70;;;33.40;35.60;;;;;;5035976;28;20025;-87
2022/10/09 12:24:51;;;;;;;2.40;0.90;;;33.50;35.20;;;;;;5035659;28;20074;-86
2022/10/09 12:27:27;;;;;;;3.47;0.98;;;33.70;35.20;;;;;;5053487;28;20029;-87
2022/10/09 12:29:57;;;;;;;4.43;0.80;;;33.80;35.10;;;;;;5054392;28;20127;-88
2022/10/09 12:32:37;;;;;;;3.58;0.95;;;34.00;35.10;;;;;;5036474;28;20056;-86
2022/10/09 12:35:28;;;;;;;3.17;0.85;;;34.20;34.40;;;;;;5033824;28;20032;-86
2022/10/09 12:37:54;;;;;;;2.47;0.70;;;34.20;34.10;;;;;;5054876;28;20052;-88
2022/10/09 12:40:26;;;;;;;3.38;0.70;;;34.20;34.40;;;;;;5036152;28;20469;-88
2022/10/09 12:42:56;;;;;;;5.07;0.70;;;34.20;34.20;;;;;;5035569;28;20033;-85
2022/10/09 12:45:29;;;;;;;5.43;0.90;;;34.20;33.90;;;;;;5035614;28;20021;-86
2022/10/09 12:47:58;;;;;;;4.10;0.90;;;34.30;34.00;;;;;;5053062;28;20512;-84
2022/10/09 12:50:29;;;;;;;3.58;0.70;;;34.20;33.40;;;;;;5019121;28;20083;-85
2022/10/09 12:53:06;;;;;;;3.33;0.93;;;34.20;33.40;;;;;;5035471;28;20052;-85
2022/10/09 12:55:34;;;;;;;4.72;1.00;;;34.10;33.20;;;;;;5035397;28;20040;-86
2022/10/09 12:58:23;;;;;;;4.15;0.80;;;34.20;33.40;;;;;;5036108;28;20021;-86
2022/10/09 13:00:53;;;;;;;3.75;0.88;;;34.20;33.10;;;;;;5054467;28;20017;-88
2022/10/09 13:03:35;;;;;;;3.25;0.60;;;34.20;33.10;;;;;;5036277;28;20021;-85
2022/10/09 13:06:14;;;;;;;5.03;0.80;;;34.20;33.30;;;;;;5032688;28;20056;-85
2022/10/09 13:08:46;;;;;;;4.75;0.80;;;34.20;33.00;;;;;;5033070;28;20033;-88
2022/10/09 13:11:27;;;;;;;4.05;0.63;;;34.30;33.00;;;;;;5032856;28;20421;-85
2022/10/09 13:14:02;;;;;;;3.45;0.80;;;34.30;32.60;;;;;;5033077;28;20465;-85